Time;durP1;ratioP1;P1;durP2;ratioP2;P2;SDS_P1;SDS_P2;PMS_P1;PMS_P2;Temp;Humidity;BMP_temperature;BMP_pressure;BME280_temperature;BME280_humidity;BME280_pressure;Samples;Min_cycle;Max_cycle;Signal;HPM_P1;HPM_P2
2023/10/09 00:03:08;;;;;;;3.92;2.10;;;;;;;10.32;100.00;102049.63;6115370;23;20010;-74
2023/10/09 00:05:45;;;;;;;4.53;2.38;;;;;;;10.32;100.00;102061.16;6088518;23;20431;-72
2023/10/09 00:08:22;;;;;;;4.45;2.20;;;;;;;10.31;100.00;102080.94;6114848;23;20014;-73
2023/10/09 00:10:53;;;;;;;4.57;2.70;;;;;;;10.31;100.00;102069.44;6089495;23;20452;-74
2023/10/09 00:13:20;;;;;;;2.95;1.95;;;;;;;10.29;100.00;102060.78;6114733;23;20872;-71
2023/10/09 00:15:53;;;;;;;6.20;2.28;;;;;;;10.28;100.00;102053.81;6114655;23;20010;-73
2023/10/09 00:18:23;;;;;;;;;;;;;;;10.26;100.00;102046.03;6115457;23;20061;-73
2023/10/09 00:20:54;;;;;;;7.63;2.40;;;;;;;10.23;100.00;102013.53;6111559;23;19908;-72
2023/10/09 00:23:20;;;;;;;6.35;2.17;;;;;;;10.22;100.00;101993.16;6113595;23;20189;-72
2023/10/09 00:28:47;;;;;;;3.92;1.90;;;;;;;10.23;100.00;101981.41;6113232;23;20022;-72
2023/10/09 00:31:25;;;;;;;4.13;1.77;;;;;;;10.25;100.00;101960.59;6087753;23;20028;-71
2023/10/09 00:33:55;;;;;;;3.97;1.98;;;;;;;10.25;100.00;101971.31;6111235;23;20104;-72
2023/10/09 00:36:28;;;;;;;4.90;1.85;;;;;;;10.22;100.00;101969.88;6087972;23;20564;-72
2023/10/09 00:38:54;;;;;;;4.20;2.22;;;;;;;10.22;100.00;101963.69;6112443;23;20017;-73
2023/10/09 00:41:21;;;;;;;5.68;1.90;;;;;;;10.22;100.00;101980.56;6110757;23;20100;-73
2023/10/09 00:43:49;;;;;;;5.13;2.22;;;;;;;10.21;100.00;101978.13;6111062;23;20018;-73
2023/10/09 00:48:58;;;;;;;4.32;2.25;;;;;;;10.18;100.00;101966.06;6110379;23;20014;-72
2023/10/09 00:51:24;;;;;;;4.72;1.83;;;;;;;10.19;100.00;101950.81;6086750;23;20028;-72
2023/10/09 00:53:59;;;;;;;5.25;2.10;;;;;;;10.19;100.00;101945.44;6113955;23;20014;-73
2023/10/09 00:59:00;;;;;;;4.80;2.28;;;;;;;10.17;100.00;101926.13;6111773;23;20519;-71
2023/10/09 01:01:36;;;;;;;4.13;1.88;;;;;;;10.15;100.00;101910.28;6086874;23;20021;-72
2023/10/09 01:04:17;;;;;;;4.22;1.85;;;;;;;10.15;100.00;101906.81;6063685;23;20024;-73
2023/10/09 01:06:45;;;;;;;5.07;1.90;;;;;;;10.11;100.00;101911.84;6087881;23;20014;-74
2023/10/09 01:09:14;;;;;;;3.08;1.60;;;;;;;10.08;100.00;101914.97;6067348;23;20060;-72
2023/10/09 01:12:03;;;;;;;3.58;1.50;;;;;;;10.04;100.00;101909.28;6113486;23;20013;-73
2023/10/09 01:14:41;;;;;;;3.25;1.60;;;;;;;10.04;100.00;101909.28;6088409;23;20017;-71
2023/10/09 01:17:10;;;;;;;5.45;1.90;;;;;;;10.04;100.00;101905.81;6088649;23;20025;-72
2023/10/09 01:19:36;;;;;;;4.43;1.67;;;;;;;10.04;100.00;101898.59;6109478;23;20503;-73
2023/10/09 01:22:16;;;;;;;5.50;2.42;;;;;;;10.02;100.00;101897.19;6111704;23;20025;-74
2023/10/09 01:24:43;;;;;;;3.85;1.40;;;;;;;9.98;100.00;101888.84;6087801;23;20025;-74
2023/10/09 01:27:15;;;;;;;6.82;2.15;;;;;;;9.96;100.00;101885.59;6063279;23;20018;-71
2023/10/09 01:29:43;;;;;;;5.75;1.70;;;;;;;9.98;100.00;101888.84;6111542;23;20018;-72
2023/10/09 01:32:16;;;;;;;3.25;1.70;;;;;;;9.96;100.00;101888.25;6062472;23;20336;-71
2023/10/09 01:34:49;;;;;;;3.85;1.58;;;;;;;9.92;100.00;101879.06;6087274;23;20014;-72
2023/10/09 01:37:22;;;;;;;5.00;1.70;;;;;;;9.85;100.00;101868.50;6116091;23;20037;-72
2023/10/09 01:39:50;;;;;;;3.80;1.73;;;;;;;9.83;100.00;101873.28;6088572;23;20467;-70
2023/10/09 01:42:44;;;;;;;4.43;1.70;;;;;;;9.81;100.00;101867.34;6113916;23;20018;-73
2023/10/09 01:45:11;;;;;;;3.92;1.70;;;;;;;9.82;100.00;101878.84;6115951;23;20029;-72
2023/10/09 01:47:38;;;;;;;3.70;1.88;;;;;;;9.82;100.00;101877.03;6115443;23;20010;-73
2023/10/09 01:50:05;;;;;;;4.70;2.35;;;;;;;9.82;100.00;101870.81;6089555;23;20049;-72
2023/10/09 01:52:31;;;;;;;5.10;2.15;;;;;;;9.77;100.00;101868.88;6113266;23;20020;-73
2023/10/09 01:55:02;;;;;;;2.70;1.85;;;;;;;9.76;100.00;101850.41;6112510;23;20390;-73
2023/10/09 01:57:30;;;;;;;5.10;1.80;;;;;;;9.73;100.00;101848.19;6114797;23;20121;-71
2023/10/09 01:59:59;;;;;;;4.82;2.08;;;;;;;9.67;100.00;101833.88;6064647;23;20021;-73
2023/10/09 02:02:34;;;;;;;4.05;1.85;;;;;;;9.62;100.00;101831.13;6089279;23;20032;-72
2023/10/09 02:05:26;;;;;;;3.67;2.40;;;;;;;9.60;100.00;101838.56;6088667;23;20072;-73
2023/10/09 02:07:51;;;;;;;4.38;1.75;;;;;;;9.58;100.00;101833.44;6113851;23;20013;-71
2023/10/09 02:10:31;;;;;;;4.47;1.90;;;;;;;9.60;100.00;101824.38;6066557;23;20079;-73
2023/10/09 02:13:07;;;;;;;4.25;2.17;;;;;;;9.57;100.00;101804.28;6115931;23;20057;-71
2023/10/09 02:26:08;;;;;;;6.13;2.55;;;;;;;9.44;100.00;101791.97;6112278;23;20018;-70
2023/10/09 02:28:37;;;;;;;5.95;1.88;;;;;;;9.46;100.00;101800.56;6066954;23;20049;-74
2023/10/09 02:31:14;;;;;;;4.57;2.15;;;;;;;9.45;100.00;101769.53;6090940;23;20010;-74
2023/10/09 02:33:41;;;;;;;3.72;1.60;;;;;;;9.45;100.00;101761.50;6118012;23;20343;-75
2023/10/09 02:36:12;;;;;;;4.38;2.33;;;;;;;9.45;100.00;101782.91;6117055;23;20087;-74
2023/10/09 02:38:41;;;;;;;3.83;1.60;;;;;;;9.45;100.00;101803.47;6093336;23;20526;-74
2023/10/09 02:43:44;;;;;;;5.25;2.10;;;;;;;9.43;100.00;101838.47;6093250;23;20486;-74
2023/10/09 02:46:18;;;;;;;5.22;2.03;;;;;;;9.41;100.00;101827.19;6116649;23;20037;-75
2023/10/09 02:48:50;;;;;;;5.85;1.98;;;;;;;9.41;100.00;101805.81;6117044;23;20021;-73
2023/10/09 02:57:05;;;;;;;4.13;1.77;;;;;;;9.43;100.00;101773.50;6116245;23;20029;-74
2023/10/09 02:59:32;;;;;;;4.63;1.88;;;;;;;9.41;100.00;101764.88;6116764;23;20019;-75
2023/10/09 03:01:59;;;;;;;3.95;1.92;;;;;;;9.41;100.00;101770.22;6116614;23;20018;-78
2023/10/09 03:04:31;;;;;;;3.08;1.50;;;;;;;9.43;100.00;101766.28;6068770;23;20071;-75
2023/10/09 03:06:58;;;;;;;6.90;1.63;;;;;;;9.39;100.00;101757.09;6091293;23;20021;-74
2023/10/09 03:09:28;;;;;;;3.55;1.80;;;;;;;9.40;100.00;101758.72;6119041;23;20017;-76
2023/10/09 03:12:02;;;;;;;3.70;1.77;;;;;;;9.40;100.00;101758.72;6115534;23;20120;-75
2023/10/09 03:14:32;;;;;;;5.75;1.58;;;;;;;9.39;100.00;101762.47;6092467;23;20089;-74
2023/10/09 03:16:59;;;;;;;5.47;1.95;;;;;;;9.39;100.00;101764.31;6115676;23;20048;-75
2023/10/09 03:19:29;;;;;;;4.53;1.75;;;;;;;9.38;100.00;101750.13;6092617;23;20028;-74
2023/10/09 03:21:57;;;;;;;5.40;1.92;;;;;;;9.39;100.00;101749.09;6090336;23;20491;-75
2023/10/09 03:24:26;;;;;;;3.92;1.70;;;;;;;9.40;100.00;101733.84;6116875;23;20148;-75
2023/10/09 03:26:55;;;;;;;2.80;1.60;;;;;;;9.36;100.00;101725.50;6092023;23;20085;-74
2023/10/09 03:29:22;;;;;;;4.88;1.40;;;;;;;9.31;100.00;101712.03;6118602;23;20025;-72
2023/10/09 03:31:50;;;;;;;3.90;1.70;;;;;;;9.31;100.00;101706.69;6122493;23;20010;-74
2023/10/09 03:34:16;;;;;;;3.20;1.50;;;;;;;9.29;100.00;101719.50;6119347;23;20362;-74
2023/10/09 03:36:43;;;;;;;3.13;1.65;;;;;;;9.28;100.00;101723.22;6118091;23;20459;-76
2023/10/09 03:41:58;;;;;;;3.67;1.50;;;;;;;9.31;100.00;101712.03;6092249;23;20017;-75
2023/10/09 03:44:28;;;;;;;5.03;1.85;;;;;;;9.31;100.00;101714.72;6091781;23;20021;-73
2023/10/09 03:46:55;;;;;;;2.58;1.42;;;;;;;9.29;100.00;101711.47;6114028;23;20026;-75
2023/10/09 03:49:23;;;;;;;3.88;1.80;;;;;;;9.26;100.00;101714.59;6067311;23;20025;-75
2023/10/09 03:51:50;;;;;;;3.25;1.73;;;;;;;9.25;100.00;101708.44;6117035;23;20096;-73
2023/10/09 03:54:20;;;;;;;6.10;1.73;;;;;;;9.24;100.00;101714.03;6115596;23;20105;-75
2023/10/09 03:56:50;;;;;;;3.03;1.60;;;;;;;9.26;100.00;101699.38;6091974;23;20026;-74
2023/10/09 03:59:19;;;;;;;3.20;1.55;;;;;;;9.25;100.00;101707.63;6116008;23;20010;-74
2023/10/09 04:01:48;;;;;;;3.22;1.38;;;;;;;9.24;100.00;101706.03;6091454;23;20022;-75
2023/10/09 04:04:14;;;;;;;3.05;1.70;;;;;;;9.25;100.00;101697.75;6115736;23;20033;-74
2023/10/09 04:06:41;;;;;;;4.50;1.50;;;;;;;9.26;100.00;101693.22;6115569;23;20028;-73
2023/10/09 04:12:12;;;;;;;4.63;1.70;;;;;;;9.29;100.00;101698.09;6117466;23;20014;-74
2023/10/09 04:20:47;;;;;;;3.75;1.48;;;;;;;9.26;100.00;101696.69;6115776;23;20049;-75
2023/10/09 04:22:40;;;;;;;3.55;1.42;;;;;;;9.25;100.00;101687.06;6115737;23;20168;-75
2023/10/09 04:25:14;;;;;;;4.90;1.90;;;;;;;9.28;100.00;101691.16;6114175;23;20644;-74
2023/10/09 04:27:41;;;;;;;4.85;1.83;;;;;;;9.25;100.00;101691.59;6115822;23;20041;-74
2023/10/09 04:30:07;;;;;;;4.20;2.00;;;;;;;9.26;100.00;101698.56;6066552;23;20356;-74
2023/10/09 04:32:34;;;;;;;3.92;1.50;;;;;;;9.22;100.00;101694.75;6091516;23;20014;-75
2023/10/09 04:37:52;;;;;;;5.88;1.95;;;;;;;9.21;100.00;101679.75;6117485;23;20013;-74
2023/10/09 04:43:06;;;;;;;2.95;1.67;;;;;;;9.21;100.00;101674.41;6117010;23;20014;-73
2023/10/09 04:48:10;;;;;;;7.15;2.33;;;;;;;9.24;100.00;101684.63;6094358;23;20467;-74
2023/10/09 04:56:04;;;;;;;3.78;1.42;;;;;;;9.19;100.00;101682.66;6117874;23;20002;-73
2023/10/09 04:58:32;;;;;;;5.32;1.50;;;;;;;9.22;100.00;101692.09;6116784;23;20018;-72
2023/10/09 05:01:03;;;;;;;3.13;1.63;;;;;;;9.23;100.00;101689.16;6115711;23;20025;-73
2023/10/09 05:03:42;;;;;;;3.70;1.63;;;;;;;9.21;100.00;101690.44;6116588;23;20042;-74
2023/10/09 05:09:07;;;;;;;3.97;1.45;;;;;;;9.26;100.00;101687.88;6116194;23;20128;-73
2023/10/09 05:11:53;;;;;;;3.63;1.80;;;;;;;9.28;100.00;101677.78;6116169;23;20347;-73
2023/10/09 05:14:26;;;;;;;4.28;2.03;;;;;;;9.30;100.00;101659.63;6091135;23;20036;-73
2023/10/09 05:16:54;;;;;;;3.03;1.55;;;;;;;9.27;100.00;101663.56;6090568;23;20018;-74
2023/10/09 05:19:41;;;;;;;3.90;1.58;;;;;;;9.25;100.00;101648.84;6090667;23;20462;-75
2023/10/09 05:22:29;;;;;;;3.90;1.50;;;;;;;9.27;100.00;101652.06;6070249;23;20399;-74
2023/10/09 05:24:56;;;;;;;5.72;1.80;;;;;;;9.26;100.00;101645.09;6117238;23;20015;-74
2023/10/09 05:30:27;;;;;;;5.13;1.75;;;;;;;9.25;100.00;101646.97;6116057;23;20014;-73
2023/10/09 05:32:58;;;;;;;5.00;1.85;;;;;;;9.27;100.00;101641.38;6091551;23;20091;-74
2023/10/09 05:35:39;;;;;;;6.38;1.65;;;;;;;9.27;100.00;101649.41;6115103;23;20014;-75
2023/10/09 05:38:15;;;;;;;4.40;1.80;;;;;;;9.22;100.00;101641.31;6115712;23;20037;-75
2023/10/09 05:40:43;;;;;;;5.28;2.08;;;;;;;9.20;100.00;101636.19;6066260;23;20025;-75
2023/10/09 05:44:55;;;;;;;3.65;1.95;;;;;;;9.22;100.00;101638.63;6116957;23;20064;-74
2023/10/09 05:46:08;;;;;;;3.42;1.60;;;;;;;9.18;100.00;101642.81;6118885;23;20046;-74
2023/10/09 05:51:41;;;;;;;3.45;1.15;;;;;;;9.14;100.00;101649.69;6115322;23;19909;-76
2023/10/09 05:54:23;;;;;;;5.00;1.38;;;;;;;9.14;100.00;101649.69;6116820;23;20088;-73
2023/10/09 06:03:23;;;;;;;3.47;2.00;;;;;;;9.12;100.00;101638.44;6115704;23;20025;-75
2023/10/09 06:05:40;;;;;;;4.85;2.05;;;;;;;9.06;100.00;101634.03;6116339;23;20024;-74
2023/10/09 06:08:06;;;;;;;3.67;1.40;;;;;;;9.00;100.00;101635.78;6123193;23;20049;-77
2023/10/09 06:10:39;;;;;;;4.65;1.65;;;;;;;8.95;100.00;101654.41;6119201;23;20029;-76
2023/10/09 06:13:06;;;;;;;3.65;1.45;;;;;;;8.92;100.00;101677.03;6118953;23;20530;-77
2023/10/09 06:18:32;;;;;;;6.05;2.08;;;;;;;8.94;100.00;101677.63;6119057;23;20018;-82
2023/10/09 06:26:27;;;;;;;;;;;;;;;8.99;100.00;101661.69;6119276;23;20013;-76
2023/10/09 06:34:32;;;;;;;3.03;1.80;;;;;;;8.92;100.00;101655.66;6117364;23;20888;-76
2023/10/09 06:37:17;;;;;;;4.72;1.90;;;;;;;8.87;100.00;101642.19;6120555;23;20078;-76
2023/10/09 06:47:41;;;;;;;4.47;2.03;;;;;;;8.82;100.00;101626.09;6116666;23;20045;-74
2023/10/09 06:52:57;;;;;;;4.78;2.13;;;;;;;8.82;100.00;101631.44;6117177;23;20068;-73
2023/10/09 06:58:15;;;;;;;6.25;2.50;;;;;;;8.86;100.00;101635.25;6117696;23;20036;-72
2023/10/09 07:03:29;;;;;;;4.68;2.50;;;;;;;8.87;100.00;101625.38;6115473;23;20500;-73
2023/10/09 07:06:09;;;;;;;5.20;2.13;;;;;;;8.88;100.00;101622.47;6114201;23;20006;-72
2023/10/09 07:08:57;;;;;;;4.68;2.25;;;;;;;8.87;100.00;101612.81;6119750;23;20025;-72
2023/10/09 07:22:29;;;;;;;4.57;2.65;;;;;;;8.86;100.00;101648.59;6117946;23;20018;-75
2023/10/09 07:30:35;;;;;;;5.65;2.63;;;;;;;8.91;100.00;101632.69;6095032;23;20046;-73
2023/10/09 07:38:35;;;;;;;4.70;2.33;;;;;;;8.94;100.00;101631.38;6092905;23;20018;-73
2023/10/09 07:43:39;;;;;;;4.00;2.13;;;;;;;9.00;100.00;101639.25;6114674;23;20022;-73
2023/10/09 07:49:12;;;;;;;4.90;2.85;;;;;;;9.03;100.00;101621.97;5988795;23;20034;-73
2023/10/09 07:51:46;;;;;;;4.88;3.10;;;;;;;9.06;100.00;101613.47;6028557;23;20167;-75
2023/10/09 07:54:14;;;;;;;5.60;3.03;;;;;;;9.09;100.00;101606.84;6074339;23;20105;-74
2023/10/09 07:56:41;;;;;;;5.10;2.80;;;;;;;9.10;100.00;101616.47;6116880;23;20013;-73
2023/10/09 07:59:11;;;;;;;4.22;2.33;;;;;;;9.12;100.00;101627.75;6117238;23;20021;-74
2023/10/09 08:01:52;;;;;;;3.53;2.40;;;;;;;9.12;100.00;101625.88;6116092;23;20087;-74
2023/10/09 08:04:48;;;;;;;4.72;2.53;;;;;;;9.10;100.00;101619.97;6116250;23;20025;-74
2023/10/09 08:07:34;;;;;;;5.70;2.53;;;;;;;9.15;100.00;101613.91;6091431;23;20025;-73
2023/10/09 08:17:58;;;;;;;3.70;2.50;;;;;;;9.32;100.00;101606.72;6118019;23;20081;-72
2023/10/09 08:20:36;;;;;;;3.72;2.80;;;;;;;9.36;100.00;101607.88;6089948;23;20065;-73
2023/10/09 08:23:04;;;;;;;4.55;2.13;;;;;;;9.38;100.00;101610.31;6116530;23;20103;-74
2023/10/09 08:25:35;;;;;;;3.60;2.70;;;;;;;9.34;100.00;101604.63;6092248;23;20621;-73
2023/10/09 08:36:01;;;;;;;4.82;2.42;;;;;;;9.48;100.00;101615.81;6115616;23;20020;-74
2023/10/09 08:38:33;;;;;;;2.80;2.45;;;;;;;9.47;100.00;101620.38;6115331;23;20025;-73
2023/10/09 08:41:22;;;;;;;3.90;2.70;;;;;;;9.48;100.00;101622.00;6065386;23;20511;-73
2023/10/09 08:43:53;;;;;;;2.83;2.15;;;;;;;9.53;100.00;101616.72;6090378;23;20164;-75
2023/10/09 08:46:20;;;;;;;3.13;2.55;;;;;;;9.55;100.00;101617.31;6083241;23;20014;-74
2023/10/09 08:48:47;;;;;;;3.40;2.40;;;;;;;9.54;100.00;101615.69;6115950;23;20022;-74
2023/10/09 08:51:14;;;;;;;3.40;2.20;;;;;;;9.50;100.00;101613.75;6119411;23;20624;-74
2023/10/09 08:53:43;;;;;;;3.28;2.40;;;;;;;9.51;100.00;101613.50;6122277;23;20020;-74
2023/10/09 08:56:23;;;;;;;3.92;2.40;;;;;;;9.52;100.00;101612.44;6119894;23;20096;-73
2023/10/09 08:58:51;;;;;;;3.67;2.17;;;;;;;9.54;100.00;101604.16;6094674;23;20018;-73
2023/10/09 09:01:21;;;;;;;4.28;2.78;;;;;;;9.52;100.00;101607.09;6116367;23;20024;-73
2023/10/09 09:03:47;;;;;;;3.75;2.45;;;;;;;9.51;100.00;101605.47;6117140;23;20045;-74
2023/10/09 09:06:14;;;;;;;4.07;2.70;;;;;;;9.55;100.00;101597.75;6091029;23;20021;-73
2023/10/09 09:08:40;;;;;;;4.13;2.58;;;;;;;9.57;100.00;101609.84;6092728;23;20029;-73
2023/10/09 09:11:22;;;;;;;;;;;;;;;9.57;100.00;101604.50;6117726;23;20109;-73
2023/10/09 09:14:12;;;;;;;3.10;2.08;;;;;;;9.59;100.00;101609.59;6116107;23;19912;-74
2023/10/09 09:16:44;;;;;;;4.15;2.38;;;;;;;9.62;100.00;101601.13;6116932;23;20025;-73
2023/10/09 09:21:47;;;;;;;3.97;2.63;;;;;;;9.68;100.00;101605.47;6090163;23;20021;-74
2023/10/09 09:26:59;;;;;;;3.78;2.90;;;;;;;9.72;100.00;101601.28;6091115;23;20014;-73
2023/10/09 09:29:38;;;;;;;5.63;3.33;;;;;;;9.74;100.00;101598.34;6090704;23;20104;-73
2023/10/09 09:32:18;;;;;;;5.18;2.83;;;;;;;9.76;100.00;101596.25;6084388;23;20022;-73
2023/10/09 09:34:49;;;;;;;3.55;2.53;;;;;;;9.79;100.00;101595.75;6117436;23;20677;-74
2023/10/09 09:37:28;;;;;;;5.57;2.60;;;;;;;9.83;100.00;101603.06;6116100;23;20018;-74
2023/10/09 09:39:57;;;;;;;4.13;3.20;;;;;;;9.87;100.00;101598.03;6090918;23;20018;-74
2023/10/09 09:42:26;;;;;;;5.93;3.72;;;;;;;9.90;100.00;101600.22;6116103;23;20014;-74
2023/10/09 09:44:52;;;;;;;3.85;2.97;;;;;;;9.89;100.00;101595.94;6066973;23;20028;-76
2023/10/09 09:47:26;;;;;;;4.32;2.67;;;;;;;9.92;100.00;101594.63;6115907;23;20017;-74
2023/10/09 09:49:59;;;;;;;4.03;3.40;;;;;;;9.94;100.00;101597.88;6115141;23;20013;-74
2023/10/09 09:52:28;;;;;;;4.22;3.33;;;;;;;9.96;100.00;101596.59;6114948;23;20040;-75
2023/10/09 09:54:54;;;;;;;5.55;3.00;;;;;;;10.01;100.00;101585.94;6115736;23;20076;-73
2023/10/09 09:57:26;;;;;;;4.18;2.78;;;;;;;10.01;100.00;101593.97;6116445;23;20147;-74
2023/10/09 09:59:52;;;;;;;4.32;3.20;;;;;;;10.06;100.00;101586.03;6117471;23;20018;-74
2023/10/09 10:02:24;;;;;;;4.57;3.10;;;;;;;10.08;100.00;101588.44;6117942;23;20079;-74
2023/10/09 10:04:56;;;;;;;4.45;2.80;;;;;;;10.12;100.00;101590.41;6118683;23;20010;-72
2023/10/09 10:07:24;;;;;;;;;;;;;;;10.12;100.00;101589.59;6117074;23;20053;-72
2023/10/09 10:09:54;;;;;;;4.10;2.50;;;;;;;10.12;100.00;101587.72;6123293;23;19919;-74
2023/10/09 10:13:00;;;;;;;4.07;2.78;;;;;;;10.17;100.00;101581.63;6119672;23;20022;-73
2023/10/09 10:15:57;;;;;;;3.83;3.35;;;;;;;10.18;100.00;101582.44;6119303;23;20010;-72
2023/10/09 10:18:23;;;;;;;4.75;2.90;;;;;;;10.15;100.00;101577.56;6093653;23;20014;-72
2023/10/09 10:24:51;;;;;;;4.00;2.83;;;;;;;10.19;100.00;101573.34;6069346;23;20028;-72
2023/10/09 10:27:23;;;;;;;3.22;2.20;;;;;;;10.19;100.00;101574.16;6116971;23;20033;-74
2023/10/09 10:30:18;;;;;;;2.67;2.25;;;;;;;10.18;100.00;101579.75;6118341;23;20689;-73
2023/10/09 10:32:54;;;;;;;4.22;2.70;;;;;;;10.20;100.00;101591.03;6115813;23;20028;-71
2023/10/09 10:35:32;;;;;;;2.75;2.45;;;;;;;10.23;100.00;101587.88;6090165;23;20084;-72
2023/10/09 10:40:40;;;;;;;3.97;3.08;;;;;;;10.29;100.00;101592.25;6116937;23;20064;-72
2023/10/09 10:43:47;;;;;;;3.65;2.60;;;;;;;10.31;100.00;101590.16;6117818;23;20010;-71
2023/10/09 10:46:15;;;;;;;3.58;2.30;;;;;;;10.32;100.00;101594.44;6092072;23;20006;-71
2023/10/09 10:48:49;;;;;;;3.78;2.10;;;;;;;10.37;100.00;101583.81;6090633;23;20120;-71
2023/10/09 10:51:14;;;;;;;2.63;2.05;;;;;;;10.38;100.00;101575.53;6114767;23;20018;-73
2023/10/09 10:53:56;;;;;;;2.40;1.95;;;;;;;10.44;100.00;101576.41;6117350;23;20104;-72
2023/10/09 10:56:35;;;;;;;3.00;2.10;;;;;;;10.45;100.00;101571.88;6067555;23;20017;-72
2023/10/09 11:04:38;;;;;;;2.83;2.20;;;;;;;10.59;100.00;101578.47;6118008;23;20518;-72
2023/10/09 11:12:44;;;;;;;3.55;2.65;;;;;;;10.63;100.00;101575.06;6116699;23;20009;-71
2023/10/09 11:18:16;;;;;;;2.25;1.58;;;;;;;10.65;100.00;101580.97;6114537;23;20076;-72
2023/10/09 11:23:53;;;;;;;3.20;2.42;;;;;;;10.71;100.00;101578.34;6110209;23;20018;-74
2023/10/09 11:26:27;;;;;;;2.90;1.92;;;;;;;10.74;100.00;101570.59;6117769;23;20042;-74
2023/10/09 11:29:16;;;;;;;2.33;1.77;;;;;;;10.76;100.00;101556.97;6116889;23;20041;-74
2023/10/09 11:31:57;;;;;;;3.15;2.20;;;;;;;10.83;100.00;101557.56;6117251;23;20080;-73
2023/10/09 11:34:29;;;;;;;3.25;2.17;;;;;;;10.91;100.00;101562.50;6116821;23;20021;-74
2023/10/09 11:36:58;;;;;;;3.47;2.38;;;;;;;10.89;100.00;101564.59;6118623;23;20013;-75
2023/10/09 11:39:31;;;;;;;2.85;2.17;;;;;;;10.90;100.00;101568.91;6118747;23;20029;-74
2023/10/09 11:42:05;;;;;;;2.80;2.20;;;;;;;10.88;100.00;101571.03;6091638;23;20537;-74
2023/10/09 11:44:45;;;;;;;3.53;2.50;;;;;;;10.92;100.00;101572.97;6116334;23;20452;-72
2023/10/09 11:52:35;;;;;;;2.85;2.47;;;;;;;10.93;100.00;101565.72;6117682;23;20081;-74
2023/10/09 11:55:02;;;;;;;2.78;2.15;;;;;;;10.94;100.00;101570.03;6115743;23;20085;-74
2023/10/09 11:57:33;;;;;;;2.90;2.25;;;;;;;10.96;100.00;101573.25;6095929;23;20021;-74
2023/10/09 12:00:00;;;;;;;2.70;2.03;;;;;;;10.98;100.00;101560.44;6091761;23;20025;-73
2023/10/09 12:02:26;;;;;;;3.05;2.22;;;;;;;10.98;100.00;101570.34;6116873;23;20022;-74
2023/10/09 12:04:56;;;;;;;2.70;2.40;;;;;;;10.99;100.00;101562.06;6115029;23;20016;-71
2023/10/09 12:07:26;;;;;;;2.80;2.25;;;;;;;11.04;100.00;101564.78;6116588;23;20022;-71
2023/10/09 12:09:56;;;;;;;2.70;2.10;;;;;;;11.11;100.00;101559.22;6106504;23;20021;-74
2023/10/09 12:12:25;;;;;;;3.10;2.33;;;;;;;11.15;100.00;101561.13;6090865;23;20017;-73
2023/10/09 12:14:53;;;;;;;3.00;2.45;;;;;;;11.18;100.00;101559.84;6115319;23;20014;-71
2023/10/09 12:17:18;;;;;;;2.95;2.42;;;;;;;11.20;100.00;101561.19;6116475;23;20014;-72
2023/10/09 12:19:44;;;;;;;3.40;2.78;;;;;;;11.23;100.00;101551.81;6065977;23;20163;-72
2023/10/09 12:22:16;;;;;;;2.50;2.25;;;;;;;11.19;100.00;101556.09;6090456;23;20021;-71
2023/10/09 12:24:43;;;;;;;;;;;;;;;11.19;100.00;101554.22;6088990;23;20017;-71
2023/10/09 12:27:11;;;;;;;3.35;1.90;;;;;;;11.24;100.00;101544.56;6089906;23;19949;-72
2023/10/09 12:29:37;;;;;;;2.42;2.10;;;;;;;11.24;100.00;101547.25;6114582;23;20025;-71
2023/10/09 12:32:06;;;;;;;1.85;1.52;;;;;;;11.21;100.00;101541.34;6114274;23;20028;-74
2023/10/09 12:34:31;;;;;;;2.63;1.95;;;;;;;11.25;100.00;101548.91;6113859;23;20025;-74
2023/10/09 12:37:03;;;;;;;2.30;1.92;;;;;;;11.29;100.00;101550.00;6089944;23;20013;-72
2023/10/09 12:39:33;;;;;;;2.13;1.30;;;;;;;11.29;100.00;101560.72;6066031;23;20021;-72
2023/10/09 12:42:08;;;;;;;2.22;1.42;;;;;;;11.27;100.00;101557.50;6113044;23;20124;-73
2023/10/09 12:44:40;;;;;;;2.67;2.00;;;;;;;11.29;100.00;101558.84;6114690;23;20168;-73
2023/10/09 12:47:07;;;;;;;2.22;1.88;;;;;;;11.33;100.00;101554.59;6114666;23;20021;-73
2023/10/09 12:49:32;;;;;;;2.33;2.00;;;;;;;11.34;100.00;101560.78;6065191;23;20428;-73
2023/10/09 12:51:59;;;;;;;3.10;2.03;;;;;;;11.35;100.00;101555.16;6113629;23;20025;-73
2023/10/09 12:54:28;;;;;;;2.75;1.83;;;;;;;11.40;100.00;101549.03;6117186;23;20069;-73
2023/10/09 12:56:59;;;;;;;2.40;1.80;;;;;;;11.42;100.00;101549.56;6066201;23;20014;-74
2023/10/09 12:59:24;;;;;;;3.20;2.00;;;;;;;11.45;100.00;101551.75;6116225;23;20025;-74
2023/10/09 13:01:57;;;;;;;2.80;2.40;;;;;;;11.46;100.00;101548.03;6114894;23;20044;-74
2023/10/09 13:04:23;;;;;;;2.50;1.92;;;;;;;11.47;100.00;101552.31;6113917;23;20022;-71
2023/10/09 13:06:54;;;;;;;2.78;1.88;;;;;;;11.50;100.00;101546.41;6112955;23;20344;-74
2023/10/09 13:09:42;;;;;;;3.10;2.30;;;;;;;11.49;100.00;101547.50;6110874;23;20021;-73
2023/10/09 13:12:09;;;;;;;2.17;1.90;;;;;;;11.53;100.00;101553.97;6113205;23;20017;-72
2023/10/09 13:14:35;;;;;;;3.53;2.80;;;;;;;11.57;100.00;101551.56;6093878;23;20018;-72
2023/10/09 13:17:09;;;;;;;;;;;;;;;11.58;100.00;101554.00;6094053;23;20465;-72
2023/10/09 13:19:36;;;;;;;3.25;2.35;;;;;;;11.60;100.00;101549.19;6116853;23;19916;-74
2023/10/09 13:22:03;;;;;;;3.75;2.20;;;;;;;11.61;100.00;101550.81;6114940;23;20013;-73
2023/10/09 13:24:30;;;;;;;2.70;2.10;;;;;;;11.62;100.00;101549.75;6113475;23;20013;-72
2023/10/09 13:26:58;;;;;;;2.92;2.15;;;;;;;11.64;100.00;101550.28;6065493;23;20103;-73
2023/10/09 13:29:24;;;;;;;2.70;2.30;;;;;;;11.67;100.00;101541.75;6089749;23;20014;-72
2023/10/09 13:31:57;;;;;;;2.90;2.25;;;;;;;11.73;100.00;101539.91;6088197;23;20018;-73
2023/10/09 13:34:27;;;;;;;3.28;2.10;;;;;;;11.79;100.00;101543.44;6090102;23;20014;-73
2023/10/09 13:36:55;;;;;;;3.55;2.28;;;;;;;11.84;100.00;101549.66;6115468;23;20049;-73
2023/10/09 13:39:27;;;;;;;2.65;1.92;;;;;;;11.86;100.00;101554.78;6113788;23;20018;-73
2023/10/09 13:42:04;;;;;;;2.65;2.33;;;;;;;11.90;100.00;101550.50;6113499;23;20064;-73
2023/10/09 13:44:32;;;;;;;2.53;1.90;;;;;;;11.94;100.00;101555.13;6113460;23;20014;-72
2023/10/09 13:47:05;;;;;;;2.40;2.10;;;;;;;11.96;100.00;101561.03;6113779;23;20097;-72
2023/10/09 13:49:31;;;;;;;2.80;2.28;;;;;;;11.95;100.00;101554.03;6064746;23;20033;-72
2023/10/09 13:52:02;;;;;;;3.42;2.33;;;;;;;12.00;100.00;101555.97;6113899;23;20882;-73
2023/10/09 13:57:06;;;;;;;2.80;2.10;;;;;;;12.03;100.00;101555.44;6118729;23;20448;-74
2023/10/09 13:59:36;;;;;;;2.35;2.00;;;;;;;12.01;100.00;101546.84;6091801;23;20052;-72
2023/10/09 14:02:09;;;;;;;2.50;2.03;;;;;;;12.04;100.00;101546.31;6086340;23;20474;-72
2023/10/09 14:04:35;;;;;;;2.33;1.88;;;;;;;12.06;100.00;101548.72;6093527;23;20013;-73
2023/10/09 14:07:05;;;;;;;2.30;2.00;;;;;;;12.09;100.00;101543.66;6116146;23;20389;-73
2023/10/09 14:09:31;;;;;;;3.13;2.60;;;;;;;12.12;100.00;101553.06;6116636;23;20017;-73
2023/10/09 14:12:08;;;;;;;2.53;2.33;;;;;;;12.17;100.00;101555.78;6090333;23;20077;-73
2023/10/09 14:14:40;;;;;;;3.42;3.13;;;;;;;12.15;100.00;101547.97;6115465;23;20017;-72
2023/10/09 14:17:11;;;;;;;;;;;;;;;12.19;100.00;101550.94;6068718;23;20087;-72
2023/10/09 14:19:46;;;;;;;3.08;2.47;;;;;;;12.19;100.00;101546.41;6091392;23;19962;-72
2023/10/09 14:22:15;;;;;;;2.97;2.47;;;;;;;12.23;100.00;101549.38;6116582;23;20017;-73
2023/10/09 14:24:55;;;;;;;3.20;2.90;;;;;;;12.25;100.00;101539.97;6089588;23;20018;-72
2023/10/09 14:27:25;;;;;;;2.50;2.30;;;;;;;12.27;100.00;101545.09;6086164;23;20022;-72
2023/10/09 14:29:55;;;;;;;3.78;3.38;;;;;;;12.29;100.00;101548.31;6112554;23;20014;-72
2023/10/09 14:32:28;;;;;;;3.22;2.55;;;;;;;12.32;100.00;101546.97;6115162;23;20412;-73
2023/10/09 14:35:12;;;;;;;3.60;3.20;;;;;;;12.32;100.00;101542.41;6112455;23;20754;-72
2023/10/09 14:37:41;;;;;;;;;;;;;;;12.34;100.00;101542.19;6088362;23;20026;-72
2023/10/09 14:40:12;;;;;;;2.95;2.55;;;;;;;12.32;100.00;101544.28;6113328;23;19924;-72
2023/10/09 14:42:44;;;;;;;3.15;2.55;;;;;;;12.29;100.00;101549.13;6114062;23;20029;-73
2023/10/09 14:45:15;;;;;;;2.65;2.20;;;;;;;12.33;100.00;101548.59;6116439;23;20010;-78